createdAt,value
2023-01-30T00:00:13.250Z,10.30
2023-01-30T00:02:41.135Z,9.13
2023-01-30T00:05:09.038Z,11.20
2023-01-30T00:07:36.282Z,7.53
2023-01-30T00:10:04.727Z,10.23
2023-01-30T00:12:32.008Z,9.47
2023-01-30T00:14:59.331Z,8.00
2023-01-30T00:17:26.575Z,5.67
2023-01-30T00:19:54.502Z,7.40
2023-01-30T00:22:21.835Z,8.93
2023-01-30T00:24:49.188Z,9.13
2023-01-30T00:27:16.556Z,8.70
2023-01-30T00:29:49.284Z,8.80
2023-01-30T00:32:21.580Z,8.67
2023-01-30T00:34:48.810Z,7.60
2023-01-30T00:37:16.720Z,8.63
2023-01-30T00:39:43.955Z,9.63
2023-01-30T00:42:29.308Z,8.50
2023-01-30T00:45:11.127Z,8.90
2023-01-30T00:47:38.437Z,6.50
2023-01-30T00:50:06.395Z,9.03
2023-01-30T00:52:34.313Z,9.63
2023-01-30T00:55:01.621Z,9.37
2023-01-30T00:57:28.860Z,9.50
2023-01-30T00:59:56.647Z,8.63
2023-01-30T01:02:23.911Z,7.30
2023-01-30T01:04:51.164Z,7.80
2023-01-30T01:07:19.446Z,6.90
2023-01-30T01:09:48.563Z,8.03
2023-01-30T01:12:15.831Z,6.47
2023-01-30T01:14:43.061Z,9.60
2023-01-30T01:17:10.762Z,7.20
2023-01-30T01:19:37.988Z,8.77
2023-01-30T01:22:05.221Z,10.00
2023-01-30T01:24:32.518Z,6.97
2023-01-30T01:27:00.511Z,8.03
2023-01-30T01:29:27.813Z,9.87
2023-01-30T01:31:57.381Z,8.80
2023-01-30T01:34:24.695Z,5.97
2023-01-30T01:36:54.241Z,8.50
2023-01-30T01:39:22.448Z,6.77
2023-01-30T01:41:49.406Z,8.60
2023-01-30T01:44:17.646Z,9.47
2023-01-30T01:46:48.760Z,8.10
2023-01-30T01:49:20.699Z,7.97
2023-01-30T01:51:54.173Z,5.93
2023-01-30T01:54:26.719Z,8.67
2023-01-30T01:56:54.266Z,6.73
2023-01-30T01:59:26.268Z,7.70
2023-01-30T02:01:58.924Z,8.63
2023-01-30T02:04:41.927Z,8.20
2023-01-30T02:07:09.892Z,8.57
2023-01-30T02:09:37.636Z,9.37
2023-01-30T02:12:05.570Z,8.70
2023-01-30T02:14:34.087Z,9.70
2023-01-30T02:17:01.361Z,9.37
2023-01-30T02:19:39.363Z,6.87
2023-01-30T02:22:49.112Z,9.13
2023-01-30T02:25:58.306Z,8.50
2023-01-30T02:28:43.388Z,8.03
2023-01-30T02:31:32.307Z,8.00
2023-01-30T02:34:14.648Z,9.70
2023-01-30T02:36:51.683Z,8.83
2023-01-30T02:39:26.477Z,9.70
2023-01-30T02:42:00.695Z,8.13
2023-01-30T02:44:34.274Z,8.17
2023-01-30T02:47:07.747Z,6.10
2023-01-30T02:49:38.731Z,10.33
2023-01-30T02:52:08.125Z,9.10
2023-01-30T02:54:35.345Z,8.27
2023-01-30T02:57:02.603Z,10.10
2023-01-30T02:59:33.624Z,7.83
2023-01-30T03:02:23.493Z,7.97
2023-01-30T03:05:14.895Z,9.27
2023-01-30T03:07:48.454Z,9.13
2023-01-30T03:10:26.308Z,7.93
2023-01-30T03:13:00.722Z,9.70
2023-01-30T03:15:33.156Z,9.40
2023-01-30T03:18:02.329Z,9.73
2023-01-30T03:20:30.285Z,4.73
2023-01-30T03:22:57.676Z,8.80
2023-01-30T03:25:26.340Z,9.37
2023-01-30T03:27:55.197Z,8.10
2023-01-30T03:30:25.388Z,8.40
2023-01-30T03:32:52.634Z,7.17
2023-01-30T03:35:20.621Z,8.10
2023-01-30T03:37:48.382Z,7.60
2023-01-30T03:40:17.329Z,7.90
2023-01-30T03:42:44.566Z,5.57
2023-01-30T03:45:12.393Z,7.93
2023-01-30T03:47:39.653Z,8.33
2023-01-30T03:50:07.763Z,8.53
2023-01-30T03:52:36.148Z,7.90
2023-01-30T03:55:04.214Z,5.87
2023-01-30T03:57:31.607Z,5.93
2023-01-30T03:59:58.847Z,7.27
2023-01-30T04:02:26.247Z,7.33
2023-01-30T04:04:53.605Z,8.57
2023-01-30T04:07:20.968Z,7.60
2023-01-30T04:09:48.935Z,6.30
2023-01-30T04:12:16.242Z,10.57
2023-01-30T04:14:43.571Z,6.60
2023-01-30T04:17:10.799Z,6.73
2023-01-30T04:19:38.073Z,6.87
2023-01-30T04:22:05.424Z,8.00
2023-01-30T04:24:32.718Z,8.30
2023-01-30T04:27:00.615Z,8.17
2023-01-30T04:29:27.861Z,7.00
2023-01-30T04:31:55.117Z,6.30
2023-01-30T04:34:22.396Z,6.67
2023-01-30T04:36:49.684Z,7.20
2023-01-30T04:39:16.991Z,8.27
2023-01-30T04:41:44.321Z,7.60
2023-01-30T04:44:12.229Z,9.30
2023-01-30T04:46:39.547Z,9.53
2023-01-30T04:49:06.912Z,8.93
2023-01-30T04:51:34.225Z,6.67
2023-01-30T04:54:01.671Z,8.63
2023-01-30T04:56:28.986Z,7.30
2023-01-30T04:58:56.381Z,8.10
2023-01-30T05:01:29.220Z,7.73
2023-01-30T05:03:56.917Z,5.47
2023-01-30T05:06:24.503Z,6.37
2023-01-30T05:08:53.276Z,7.23
2023-01-30T05:11:21.205Z,8.20
2023-01-30T05:13:48.650Z,7.10
2023-01-30T05:16:17.404Z,6.80
2023-01-30T05:18:45.813Z,4.67
2023-01-30T05:21:14.635Z,8.47
2023-01-30T05:23:42.158Z,10.57
2023-01-30T05:26:09.812Z,9.77
2023-01-30T05:28:37.057Z,5.50
2023-01-30T05:31:05.392Z,7.43
2023-01-30T05:33:32.763Z,8.50
2023-01-30T05:36:00.861Z,8.70
2023-01-30T05:38:28.678Z,8.53
2023-01-30T05:41:00.123Z,7.33
2023-01-30T05:43:27.781Z,6.67
2023-01-30T05:45:55.794Z,6.67
2023-01-30T05:48:23.783Z,4.57
2023-01-30T05:50:51.670Z,6.03
2023-01-30T05:53:20.302Z,6.43
2023-01-30T05:55:54.386Z,7.00
2023-01-30T05:58:21.903Z,7.27
2023-01-30T06:00:49.198Z,7.37
2023-01-30T06:03:16.439Z,6.63
2023-01-30T06:05:43.706Z,7.50
2023-01-30T06:08:11.003Z,6.80
2023-01-30T06:10:38.925Z,7.30
2023-01-30T06:13:06.174Z,6.67
2023-01-30T06:15:33.583Z,5.30
2023-01-30T06:18:00.844Z,6.40
2023-01-30T06:20:28.103Z,6.17
2023-01-30T06:22:55.362Z,8.47
2023-01-30T06:25:22.625Z,6.40
2023-01-30T06:27:50.495Z,6.50
2023-01-30T06:30:18.269Z,5.67
2023-01-30T06:32:49.256Z,5.90
2023-01-30T06:35:16.970Z,6.40
2023-01-30T06:37:45.177Z,5.90
2023-01-30T06:40:13.369Z,7.23
2023-01-30T06:42:45.136Z,7.90
2023-01-30T06:45:13.535Z,8.20
2023-01-30T06:47:47.956Z,7.40
2023-01-30T06:50:17.189Z,9.27
2023-01-30T06:52:45.653Z,7.77
2023-01-30T06:55:15.222Z,8.00
2023-01-30T06:57:42.719Z,5.13
2023-01-30T07:00:13.797Z,6.90
2023-01-30T07:02:41.180Z,6.40
2023-01-30T07:05:09.368Z,7.10
2023-01-30T07:07:37.665Z,6.80
2023-01-30T07:10:08.544Z,5.03
2023-01-30T07:12:36.218Z,6.07
2023-01-30T07:15:04.433Z,4.63
2023-01-30T07:17:32.745Z,7.23
2023-01-30T07:20:00.031Z,5.43
2023-01-30T07:22:27.309Z,3.90
2023-01-30T07:24:54.669Z,6.90
2023-01-30T07:27:21.907Z,6.67
2023-01-30T07:29:49.160Z,5.97
2023-01-30T07:32:19.285Z,7.37
2023-01-30T07:34:47.386Z,6.13
2023-01-30T07:37:15.155Z,5.60
2023-01-30T07:39:42.591Z,6.57
2023-01-30T07:42:09.922Z,7.33
2023-01-30T07:44:37.550Z,6.80
2023-01-30T07:47:04.909Z,5.97
2023-01-30T07:49:32.224Z,5.87
2023-01-30T07:52:00.168Z,5.70
2023-01-30T07:54:27.398Z,6.93
2023-01-30T07:56:54.661Z,6.27
2023-01-30T07:59:21.939Z,5.67
2023-01-30T08:01:49.232Z,5.30
2023-01-30T08:04:16.509Z,5.70
2023-01-30T08:06:43.768Z,6.20
2023-01-30T08:09:11.745Z,4.50
2023-01-30T08:11:38.955Z,3.80
2023-01-30T08:14:06.235Z,5.00
2023-01-30T08:16:33.585Z,6.67
2023-01-30T08:19:00.921Z,4.70
2023-01-30T08:21:28.142Z,6.40
2023-01-30T08:23:55.385Z,5.10
2023-01-30T08:26:23.384Z,5.17
2023-01-30T08:28:50.686Z,5.40
2023-01-30T08:31:18.464Z,5.33
2023-01-30T08:33:45.730Z,4.57
2023-01-30T08:36:12.919Z,3.83
2023-01-30T08:38:40.186Z,8.93
2023-01-30T08:41:08.445Z,5.57
2023-01-30T08:43:36.511Z,7.97
2023-01-30T08:46:03.958Z,4.67
2023-01-30T08:48:43.308Z,5.20
2023-01-30T08:51:14.804Z,4.43
2023-01-30T08:53:42.158Z,3.63
2023-01-30T08:56:09.434Z,2.90
2023-01-30T08:58:37.468Z,2.83
2023-01-30T09:01:06.662Z,4.53
2023-01-30T09:03:34.005Z,4.00
2023-01-30T09:06:01.397Z,3.37
2023-01-30T09:08:28.923Z,2.80
2023-01-30T09:10:59.013Z,3.27
2023-01-30T09:13:26.267Z,3.20
2023-01-30T09:15:54.229Z,3.70
2023-01-30T09:18:21.480Z,3.27
2023-01-30T09:20:48.751Z,4.67
2023-01-30T09:23:15.988Z,3.10
2023-01-30T09:25:45.177Z,3.70
2023-01-30T09:28:12.671Z,2.90
2023-01-30T09:30:40.247Z,3.10
2023-01-30T09:33:08.274Z,2.87
2023-01-30T09:35:35.476Z,3.53
2023-01-30T09:38:04.018Z,3.37
2023-01-30T09:40:36.435Z,2.93
2023-01-30T09:43:24.788Z,3.43
2023-01-30T09:46:03.277Z,4.17
2023-01-30T09:48:37.069Z,3.53
2023-01-30T09:51:41.100Z,4.57
2023-01-30T09:54:23.716Z,4.43
2023-01-30T09:56:56.481Z,3.70
2023-01-30T09:59:31.100Z,5.27
2023-01-30T10:02:12.400Z,4.10
2023-01-30T10:05:00.153Z,3.50
2023-01-30T10:07:39.287Z,3.27
2023-01-30T10:10:13.840Z,4.50
2023-01-30T10:12:51.762Z,3.37
2023-01-30T10:15:28.465Z,3.77
2023-01-30T10:18:08.126Z,3.60
2023-01-30T10:20:48.028Z,3.60
2023-01-30T10:23:33.830Z,2.50
2023-01-30T10:26:09.331Z,1.63
2023-01-30T10:28:47.615Z,2.47
2023-01-30T10:31:19.748Z,2.50
2023-01-30T10:33:57.571Z,2.27
2023-01-30T10:36:32.390Z,2.23
2023-01-30T10:39:02.514Z,2.13
2023-01-30T10:41:34.541Z,2.50
2023-01-30T10:44:05.726Z,2.10
2023-01-30T10:46:46.983Z,2.27
2023-01-30T10:49:19.490Z,2.00
2023-01-30T10:51:56.254Z,2.50
2023-01-30T10:54:28.337Z,3.23
2023-01-30T10:57:04.516Z,3.40
2023-01-30T10:59:42.508Z,2.73
2023-01-30T11:02:23.802Z,2.30
2023-01-30T11:04:57.382Z,1.97
2023-01-30T11:07:25.645Z,2.10
2023-01-30T11:09:52.851Z,2.73
2023-01-30T11:12:20.081Z,2.67
2023-01-30T11:14:54.626Z,2.60
2023-01-30T11:17:28.291Z,2.77
2023-01-30T11:19:57.336Z,2.63
2023-01-30T11:22:26.295Z,2.30
2023-01-30T11:25:03.471Z,2.53
2023-01-30T11:27:32.799Z,2.47
2023-01-30T11:30:06.726Z,2.53
2023-01-30T11:32:34.142Z,2.00
2023-01-30T11:35:22.283Z,1.63
2023-01-30T11:37:53.247Z,3.00
2023-01-30T11:40:26.697Z,1.93
2023-01-30T11:43:01.663Z,2.30
2023-01-30T11:45:30.485Z,2.60
2023-01-30T11:48:02.936Z,1.60
2023-01-30T11:50:42.335Z,3.53
2023-01-30T11:53:26.213Z,1.73
2023-01-30T11:56:05.203Z,2.43
2023-01-30T11:58:38.385Z,1.97
2023-01-30T12:01:07.875Z,1.77
2023-01-30T12:03:43.213Z,2.50
2023-01-30T12:06:10.748Z,2.43
2023-01-30T12:08:42.710Z,2.13
2023-01-30T12:11:28.073Z,1.70
2023-01-30T12:14:08.418Z,1.50
2023-01-30T12:16:53.819Z,5.37
2023-01-30T12:19:49.695Z,2.73
2023-01-30T12:22:22.812Z,1.83
2023-01-30T12:25:01.073Z,2.50
2023-01-30T12:27:44.421Z,2.53
2023-01-30T12:30:23.170Z,3.10
2023-01-30T12:32:51.047Z,2.80
2023-01-30T12:35:22.891Z,2.20
2023-01-30T12:38:00.123Z,3.33
2023-01-30T12:40:47.079Z,2.80
2023-01-30T12:43:33.475Z,2.87
2023-01-30T12:46:12.724Z,2.83
2023-01-30T12:49:13.631Z,2.40
2023-01-30T12:52:02.990Z,2.47
2023-01-30T12:54:42.304Z,3.70
2023-01-30T12:57:18.627Z,2.40
2023-01-30T12:59:59.473Z,2.70
2023-01-30T13:02:46.133Z,2.57
2023-01-30T13:05:25.173Z,2.63
2023-01-30T13:08:06.103Z,1.70
2023-01-30T13:10:40.377Z,2.40
2023-01-30T13:13:16.604Z,3.20
2023-01-30T13:15:53.200Z,2.93
2023-01-30T13:18:25.237Z,1.90
2023-01-30T13:21:05.177Z,2.77
2023-01-30T13:23:45.961Z,2.40
2023-01-30T13:26:18.192Z,2.07
2023-01-30T13:28:49.019Z,2.47
2023-01-30T13:31:21.101Z,2.77
2023-01-30T13:33:51.473Z,2.20
2023-01-30T13:36:22.277Z,2.60
2023-01-30T13:38:58.145Z,2.10
2023-01-30T13:41:29.436Z,2.30
2023-01-30T13:43:59.039Z,2.10
2023-01-30T13:46:29.024Z,1.10
2023-01-30T13:49:05.641Z,1.73
2023-01-30T13:51:48.093Z,1.07
2023-01-30T13:54:30.907Z,1.40
2023-01-30T13:57:07.695Z,2.20
2023-01-30T14:00:08.758Z,1.70
2023-01-30T14:02:36.337Z,1.73
2023-01-30T14:05:05.192Z,1.30
2023-01-30T14:07:38.995Z,1.80
2023-01-30T14:10:14.247Z,2.90
2023-01-30T14:12:44.426Z,3.97
2023-01-30T14:15:28.615Z,2.13
2023-01-30T14:18:06.386Z,1.73
2023-01-30T14:20:35.246Z,1.60
2023-01-30T14:23:04.795Z,2.40
2023-01-30T14:25:48.393Z,2.03
2023-01-30T14:28:51.811Z,1.33
2023-01-30T14:31:47.778Z,3.17
2023-01-30T14:35:02.995Z,1.90
2023-01-30T14:38:11.897Z,1.23
2023-01-30T14:41:04.216Z,2.07
2023-01-30T14:43:37.445Z,2.27
2023-01-30T14:46:08.354Z,2.20
2023-01-30T14:48:44.606Z,2.47
2023-01-30T14:51:24.626Z,2.07
2023-01-30T14:53:54.946Z,2.27
2023-01-30T14:56:43.636Z,2.43
2023-01-30T14:59:21.920Z,2.40
2023-01-30T15:02:15.399Z,3.40
2023-01-30T15:04:46.363Z,2.57
2023-01-30T15:07:18.670Z,1.47
2023-01-30T15:09:53.274Z,2.00
2023-01-30T15:12:39.269Z,1.70
2023-01-30T15:15:19.320Z,1.50
2023-01-30T15:18:07.795Z,1.23
2023-01-30T15:20:51.284Z,2.30
2023-01-30T15:23:48.116Z,1.40
2023-01-30T15:26:29.403Z,2.10
2023-01-30T15:29:09.419Z,2.70
2023-01-30T15:31:36.806Z,2.00
2023-01-30T15:34:18.586Z,2.60
2023-01-30T15:36:46.550Z,1.40
2023-01-30T15:39:20.192Z,1.17
2023-01-30T15:41:47.762Z,1.70
2023-01-30T15:44:39.284Z,1.33
2023-01-30T15:47:32.087Z,7.17
2023-01-30T15:50:03.144Z,1.70
2023-01-30T15:52:39.449Z,1.60
2023-01-30T15:55:14.957Z,1.97
2023-01-30T15:57:45.452Z,1.60
2023-01-30T16:00:24.194Z,2.07
2023-01-30T16:02:51.785Z,2.50
2023-01-30T16:05:20.849Z,2.10
2023-01-30T16:07:50.688Z,1.70
2023-01-30T16:10:20.313Z,1.83
2023-01-30T16:12:48.592Z,1.50
2023-01-30T16:18:10.694Z,2.70
2023-01-30T16:20:58.982Z,2.63
2023-01-30T16:23:33.686Z,2.50
2023-01-30T16:26:02.053Z,4.23
2023-01-30T16:28:31.043Z,2.77
2023-01-30T16:31:00.772Z,3.90
2023-01-30T16:33:34.928Z,2.90
2023-01-30T16:36:02.776Z,2.80
2023-01-30T16:38:38.140Z,2.47
2023-01-30T16:41:05.926Z,1.77
2023-01-30T16:43:33.601Z,2.10
2023-01-30T16:46:39.157Z,2.60
2023-01-30T16:49:12.591Z,1.67
2023-01-30T16:51:40.683Z,2.07
2023-01-30T16:54:21.637Z,1.00
2023-01-30T16:56:51.345Z,1.90
2023-01-30T16:59:21.386Z,2.30
2023-01-30T17:01:49.675Z,2.60
2023-01-30T17:04:19.969Z,2.33
2023-01-30T17:06:53.513Z,2.30
2023-01-30T17:09:42.381Z,1.90
2023-01-30T17:12:36.703Z,2.27
2023-01-30T17:15:30.516Z,3.00
2023-01-30T17:17:57.967Z,2.90
2023-01-30T17:20:35.168Z,2.00
2023-01-30T17:23:07.770Z,1.93
2023-01-30T17:25:39.363Z,2.57
2023-01-30T17:28:07.875Z,2.43
2023-01-30T17:30:35.441Z,3.10
2023-01-30T17:33:02.857Z,1.80
2023-01-30T17:35:30.277Z,2.00
2023-01-30T17:38:05.394Z,2.30
2023-01-30T17:40:35.852Z,2.73
2023-01-30T17:43:03.526Z,1.37
2023-01-30T17:45:30.984Z,1.73
2023-01-30T17:47:58.360Z,1.47
2023-01-30T17:53:04.899Z,2.70
2023-01-30T17:55:34.528Z,2.30
2023-01-30T17:58:02.172Z,0.90
2023-01-30T18:00:29.515Z,1.77
2023-01-30T18:02:56.871Z,1.60
2023-01-30T18:05:24.567Z,1.90
2023-01-30T18:07:51.851Z,2.07
2023-01-30T18:10:20.776Z,2.13
2023-01-30T18:12:48.940Z,1.43
2023-01-30T18:15:16.837Z,1.40
2023-01-30T18:17:47.437Z,2.23
2023-01-30T18:20:18.042Z,3.80
2023-01-30T18:22:45.611Z,1.17
2023-01-30T18:25:13.268Z,1.07
2023-01-30T18:27:43.193Z,1.67
2023-01-30T18:30:14.135Z,1.57
2023-01-30T18:32:51.968Z,1.33
2023-01-30T18:35:20.363Z,1.60
2023-01-30T18:37:47.626Z,2.40
2023-01-30T18:40:15.229Z,2.00
2023-01-30T18:42:42.571Z,3.00
2023-01-30T18:45:11.386Z,1.80
2023-01-30T18:47:38.760Z,1.43
2023-01-30T18:50:06.598Z,2.37
2023-01-30T18:52:33.871Z,2.77
2023-01-30T18:55:01.234Z,2.20
2023-01-30T18:57:28.518Z,1.87
2023-01-30T18:59:55.816Z,1.37
2023-01-30T19:02:23.884Z,1.00
2023-01-30T19:04:51.569Z,1.57
2023-01-30T19:07:18.899Z,2.47
2023-01-30T19:09:46.473Z,1.90
2023-01-30T19:12:31.924Z,2.40
2023-01-30T19:14:59.333Z,1.60
2023-01-30T19:17:27.335Z,1.90
2023-01-30T19:19:56.582Z,2.30
2023-01-30T19:22:24.174Z,2.40
2023-01-30T19:24:52.058Z,1.90
2023-01-30T19:27:19.375Z,1.17
2023-01-30T19:29:46.652Z,2.13
2023-01-30T19:32:14.002Z,2.67
2023-01-30T19:34:42.832Z,1.07
2023-01-30T19:37:10.244Z,1.77
2023-01-30T19:39:37.540Z,1.70
2023-01-30T19:42:05.147Z,2.67
2023-01-30T19:44:32.578Z,2.70
2023-01-30T19:47:00.097Z,1.97
2023-01-30T19:49:27.361Z,2.83
2023-01-30T19:51:57.127Z,1.70
2023-01-30T19:54:24.419Z,3.03
2023-01-30T19:56:51.953Z,1.73
2023-01-30T19:59:19.290Z,2.03
2023-01-30T20:01:47.009Z,2.97
2023-01-30T20:04:14.429Z,1.90
2023-01-30T20:06:43.689Z,2.50
2023-01-30T20:09:12.053Z,1.93
2023-01-30T20:11:40.591Z,2.80
2023-01-30T20:14:08.952Z,2.10
2023-01-30T20:16:36.874Z,2.10
2023-01-30T20:19:05.862Z,2.33
2023-01-30T20:21:33.633Z,1.83
2023-01-30T20:24:01.707Z,2.17
2023-01-30T20:26:33.967Z,1.50
2023-01-30T20:29:02.557Z,2.30
2023-01-30T20:31:31.418Z,2.20
2023-01-30T20:34:01.657Z,2.23
2023-01-30T20:36:29.195Z,1.77
2023-01-30T20:39:01.061Z,2.77
2023-01-30T20:41:29.508Z,2.60
2023-01-30T20:43:57.532Z,1.67
2023-01-30T20:46:26.488Z,1.97
2023-01-30T20:48:55.188Z,2.07
2023-01-30T20:51:24.162Z,2.17
2023-01-30T20:53:53.187Z,2.20
2023-01-30T20:56:21.917Z,2.10
2023-01-30T20:58:50.048Z,3.30
2023-01-30T21:01:19.521Z,2.13
2023-01-30T21:03:48.641Z,2.20
2023-01-30T21:06:42.800Z,1.87
2023-01-30T21:09:04.036Z,1.37
2023-01-30T21:11:31.461Z,2.80
2023-01-30T21:13:59.759Z,1.43
2023-01-30T21:16:29.283Z,1.63
2023-01-30T21:19:01.330Z,3.10
2023-01-30T21:21:31.825Z,1.97
2023-01-30T21:24:02.009Z,1.23
2023-01-30T21:26:31.623Z,2.90
2023-01-30T21:29:00.594Z,2.50
2023-01-30T21:31:30.516Z,2.03
2023-01-30T21:33:58.751Z,1.70
2023-01-30T21:36:27.179Z,1.90
2023-01-30T21:39:12.984Z,2.30
2023-01-30T21:42:00.363Z,1.90
2023-01-30T21:44:30.881Z,2.33
2023-01-30T21:46:58.496Z,1.70
2023-01-30T21:49:26.220Z,1.53
2023-01-30T21:51:53.979Z,1.47
2023-01-30T21:54:21.879Z,1.90
2023-01-30T21:56:54.699Z,2.27
2023-01-30T21:59:22.047Z,2.27
2023-01-30T22:01:50.295Z,2.53
2023-01-30T22:04:18.776Z,1.40
2023-01-30T22:06:46.014Z,2.47
2023-01-30T22:09:15.207Z,2.63
2023-01-30T22:11:42.858Z,2.33
2023-01-30T22:14:12.540Z,2.80
2023-01-30T22:16:40.850Z,2.43
2023-01-30T22:19:09.055Z,2.43
2023-01-30T22:21:38.792Z,2.50
2023-01-30T22:24:07.947Z,3.60
2023-01-30T22:26:35.417Z,1.77
2023-01-30T22:29:04.336Z,2.33
2023-01-30T22:31:33.772Z,1.97
2023-01-30T22:34:02.194Z,1.83
2023-01-30T22:36:31.929Z,1.33
2023-01-30T22:38:59.338Z,2.20
2023-01-30T22:41:28.396Z,1.23
2023-01-30T22:43:58.698Z,1.53
2023-01-30T22:46:27.564Z,1.80
2023-01-30T22:48:55.169Z,1.60
2023-01-30T22:51:24.647Z,1.70
2023-01-30T22:53:54.379Z,1.80
2023-01-30T22:56:23.436Z,1.50
2023-01-30T22:58:51.163Z,2.00
2023-01-30T23:01:20.097Z,2.20
2023-01-30T23:03:52.019Z,2.47
2023-01-30T23:06:19.807Z,1.63
2023-01-30T23:08:48.255Z,2.23
2023-01-30T23:11:17.886Z,2.70
2023-01-30T23:13:47.094Z,2.30
2023-01-30T23:16:15.553Z,2.77
2023-01-30T23:18:54.474Z,2.10
2023-01-30T23:21:23.304Z,1.73
2023-01-30T23:23:52.945Z,1.43
2023-01-30T23:26:21.314Z,2.33
2023-01-30T23:28:48.644Z,3.17
2023-01-30T23:31:18.727Z,2.50
2023-01-30T23:33:46.486Z,2.13
2023-01-30T23:36:14.809Z,3.13
2023-01-30T23:38:42.089Z,3.27
2023-01-30T23:41:11.869Z,3.80
2023-01-30T23:43:40.576Z,2.10
2023-01-30T23:46:16.527Z,1.60
2023-01-30T23:48:44.767Z,1.13
2023-01-30T23:51:12.489Z,1.53
2023-01-30T23:53:39.980Z,1.83
2023-01-30T23:56:07.830Z,1.83
2023-01-30T23:58:36.475Z,1.90
